Date,TemperatureHighF,TemperatureAvgF,TemperatureLowF,DewpointHighF,DewpointAvgF,DewpointLowF,HumidityHigh,HumidityAvg,HumidityLow,PressureMaxIn,PressureMinIn,WindSpeedMaxMPH,WindSpeedAvgMPH,GustSpeedMaxMPH,PrecipitationSumIn
2013-1-1,59,51,46,50,46,43,95,81,71,30.22,30.13,8,3,17,0.00
2013-1-2,65,52,43,53,46,41,97,80,49,30.31,30.21,5,1,9,0.00
2013-1-3,65,52,45,52,44,36,95,76,45,30.47,30.38,4,1,11,0.00
2013-1-4,64,53,46,44,40,37,76,61,41,30.40,30.13,5,1,8,0.00
2013-1-5,59,52,46,41,39,37,77,63,48,30.12,29.86,6,2,11,0.00
2013-1-6,50,44,40,42,39,35,99,81,66,29.97,29.78,12,4,24,0.21
2013-1-7,53,44,37,36,31,25,78,60,46,30.07,29.92,17,6,30,0.00
2013-1-8,41,36,33,35,30,24,99,82,51,30.25,30.05,11,3,24,0.07
2013-1-9,51,40,33,35,30,25,84,69,52,30.29,30.22,10,2,17,0.00
2013-1-10,58,45,33,40,34,28,82,68,43,30.24,30.10,7,1,11,0.00
2013-1-11,66,54,45,53,48,39,99,81,55,30.10,29.89,9,1,17,0.08
2013-1-12,66,52,44,50,45,40,96,79,50,30.10,29.89,8,1,17,0.00
2013-1-13,66,51,43,49,44,39,92,77,53,30.29,30.10,4,1,12,0.00
2013-1-14,59,51,46,51,45,42,91,81,71,30.35,30.28,4,1,11,0.00
2013-1-15,68,55,48,54,48,38,95,79,34,30.33,30.09,7,2,17,0.02
2013-1-16,61,56,48,52,48,44,99,76,53,30.09,29.72,16,6,35,0.72
2013-1-17,63,54,45,52,47,41,89,77,58,29.85,29.73,13,3,25,0.00
2013-1-18,57,52,45,54,47,40,99,81,68,29.73,29.53,14,5,30,0.24
2013-1-19,58,50,42,46,41,38,89,73,56,29.93,29.59,13,4,23,0.00
2013-1-20,69,55,47,56,48,42,99,78,58,30.01,29.91,7,1,14,0.00
2013-1-21,68,58,51,56,51,41,99,79,52,30.00,29.74,9,2,21,0.02
2013-1-22,66,57,50,53,49,44,86,74,55,29.87,29.74,11,2,17,0.00
2013-1-23,62,55,50,49,45,43,85,71,54,30.03,29.86,11,2,18,0.00
2013-1-24,64,54,45,54,49,44,99,84,63,30.02,29.66,13,2,29,0.37
2013-1-25,65,50,43,51,44,37,99,81,43,29.72,29.57,16,2,27,0.44
2013-1-26,62,49,45,51,44,38,99,82,45,29.72,29.52,8,1,14,0.46
2013-1-27,55,47,44,45,40,36,85,76,62,30.00,29.71,9,2,18,0.01
2013-1-28,58,49,44,47,42,38,87,76,54,30.06,29.96,8,1,17,0.00
2013-1-29,49,46,43,43,40,37,90,81,72,30.16,30.05,8,1,15,0.01
2013-1-30,62,50,41,43,38,32,85,66,37,30.15,30.01,6,1,10,0.00
2013-1-31,64,52,43,51,42,34,82,68,53,30.09,29.91,13,2,25,0.00
2013-2-1,65,53,43,46,39,34,83,60,34,30.12,29.97,14,2,28,0.01
2013-2-2,68,56,49,56,49,43,91,76,57,29.97,29.84,11,2,18,0.00
2013-2-3,70,61,56,57,53,48,99,76,56,29.99,29.85,17,4,31,0.00
2013-2-4,69,60,54,56,52,42,99,76,44,30.05,29.99,5,1,11,0.00
2013-2-5,70,58,49,56,48,24,99,71,25,30.05,29.91,7,1,11,0.00
2013-2-6,65,55,46,53,46,40,88,74,50,29.91,29.74,7,1,12,0.00
2013-2-7,62,55,50,52,47,42,99,75,60,29.78,29.59,17,5,37,0.58
2013-2-8,59,52,46,48,43,38,88,73,55,29.81,29.59,8,2,18,0.01
2013-2-9,63,51,42,46,42,35,89,71,40,29.94,29.81,13,2,24,0.00
2013-2-10,62,52,45,48,42,39,84,69,51,29.94,29.85,11,2,17,0.00
2013-2-11,57,48,43,41,38,35,84,68,51,30.10,29.83,11,3,18,0.00
2013-2-12,65,51,40,50,43,36,85,74,48,30.13,30.06,8,1,15,0.00
2013-2-13,54,50,44,50,45,35,99,83,53,30.06,29.96,14,2,25,0.67
2013-2-14,52,48,46,46,42,34,96,80,51,29.97,29.74,5,1,14,0.54
2013-2-15,52,47,43,44,39,30,96,76,46,30.08,29.74,10,1,22,0.30
2013-2-16,60,50,42,48,42,37,99,77,56,30.12,30.06,6,1,14,0.22
2013-2-17,47,45,43,46,38,34,99,78,63,30.11,30.01,12,2,18,0.32
2013-2-18,60,48,42,45,39,34,84,72,51,30.14,30.10,7,1,12,0.00
2013-2-19,61,49,43,52,43,35,99,80,51,30.11,29.84,8,2,17,0.14
2013-2-20,65,51,43,47,41,36,88,69,44,30.12,29.88,7,1,15,0.00
2013-2-21,55,50,45,52,43,40,99,79,66,30.11,29.79,6,1,12,0.06
2013-2-22,61,51,46,61,29,-7,99,63,10,29.80,29.65,8,1,14,2.93
2013-2-23,68,56,47,52,14,-7,63,24,10,30.10,29.80,8,1,11,0.00
2013-2-24,71,59,51,54,18,-4,61,25,10,30.17,30.09,8,1,18,0.00
2013-2-25,69,60,53,54,19,-2,60,26,10,30.16,30.05,9,3,20,0.00
2013-2-26,69,60,52,53,30,-2,71,41,10,30.10,30.03,10,2,19,0.00
2013-2-27,61,54,47,46,42,39,74,64,47,30.11,30.00,14,3,22,0.01
2013-2-28,55,49,45,44,39,35,74,70,63,30.26,30.11,10,2,15,0.00
2013-3-1,63,50,42,46,38,33,74,64,47,30.24,30.08,6,1,11,0.00
2013-3-2,64,52,42,49,39,14,72,61,32,30.08,29.93,8,1,15,0.00
2013-3-3,56,51,46,43,35,19,72,57,33,30.02,29.82,14,5,27,0.52
2013-3-4,65,52,42,49,40,32,73,65,49,30.23,30.02,7,1,11,0.00
2013-3-5,59,50,43,44,38,31,70,63,55,30.45,30.23,10,2,21,0.00
2013-3-6,64,50,40,42,38,32,76,64,40,30.44,30.20,5,1,11,0.00
2013-3-7,58,52,50,42,31,3,74,48,13,30.21,29.99,3,0,6,0.21
2013-3-8,67,56,49,53,22,-5,72,33,10,29.99,29.91,9,1,13,0.01
2013-3-9,71,59,50,57,36,9,72,46,15,29.93,29.79,8,2,15,0.00
2013-3-10,72,61,53,55,48,39,73,62,48,29.89,29.79,8,2,11,0.00
2013-3-11,74,63,52,58,47,24,71,57,34,29.80,29.65,10,2,16,0.00
2013-3-12,71,62,54,50,48,45,72,60,44,29.78,29.65,11,4,19,0.00
2013-3-13,70,59,50,52,48,40,75,65,46,29.81,29.76,12,2,20,0.00
2013-3-14,69,62,56,54,49,42,74,64,53,29.79,29.39,16,5,29,0.01
2013-3-15,63,55,49,48,44,40,73,65,53,29.67,29.45,14,5,24,0.00
2013-3-16,59,49,44,44,39,36,76,69,48,30.05,29.66,11,2,14,0.00
2013-3-17,58,48,42,42,37,34,76,67,48,30.23,30.04,7,2,13,0.00
2013-3-18,58,49,42,45,38,30,76,66,47,30.24,30.01,10,1,14,0.00
2013-3-19,70,58,50,55,42,26,72,55,33,30.01,29.84,11,2,17,0.00
2013-3-20,74,61,49,59,43,18,73,52,27,29.98,29.89,6,1,12,0.00
2013-3-21,67,61,56,55,45,23,68,56,28,29.89,29.62,12,2,21,0.00
2013-3-22,66,57,51,45,41,32,72,56,44,29.83,29.60,14,6,30,0.00
2013-3-23,70,56,46,42,32,23,73,43,23,30.04,29.83,10,3,14,0.00
2013-3-24,69,58,46,55,47,38,76,68,57,30.08,30.00,8,2,17,0.00
2013-3-25,68,59,53,53,44,30,70,59,38,30.01,29.68,9,3,21,0.00
2013-3-26,68,60,53,53,45,24,72,59,31,29.72,29.60,12,4,22,0.00
2013-3-27,68,60,52,56,49,44,73,68,54,29.91,29.72,14,3,23,0.00
2013-3-28,70,59,53,56,47,25,72,64,33,30.12,29.90,5,1,13,0.08
2013-3-29,70,59,52,56,38,11,72,48,19,30.12,30.06,5,1,8,0.00
2013-3-30,80,66,55,61,50,35,74,57,47,30.06,29.91,6,1,16,0.00
2013-3-31,78,64,58,60,53,47,73,67,45,29.93,29.80,7,2,14,0.00
2013-4-1,73,64,53,51,44,34,70,50,34,29.96,29.83,14,4,24,0.00
2013-4-2,75,64,55,58,51,46,74,64,44,29.95,29.66,9,2,18,0.00
2013-4-3,70,63,58,54,48,36,73,59,42,29.73,29.55,13,4,24,0.01
2013-4-4,73,63,55,51,48,45,73,58,39,30.00,29.73,14,4,24,0.00
2013-4-5,77,65,55,55,49,44,74,59,37,30.02,29.86,11,2,25,0.00
2013-4-6,80,65,54,58,52,45,75,64,42,29.89,29.80,6,1,13,0.00
2013-4-7,72,63,59,60,52,46,72,66,57,29.80,29.39,11,4,24,0.02
2013-4-8,62,57,52,50,46,35,73,66,52,29.95,29.48,13,2,21,0.01
2013-4-9,69,59,50,52,43,24,75,56,36,30.05,29.95,14,3,20,0.00
2013-4-10,75,62,52,53,48,34,71,59,41,30.06,29.97,9,2,17,0.00
2013-4-11,67,56,52,51,47,41,74,70,56,30.07,29.98,4,1,8,0.00
2013-4-12,78,66,53,58,50,43,72,58,44,30.14,30.06,4,1,9,0.00
2013-4-13,79,67,57,56,51,47,72,58,41,30.17,30.11,5,2,11,0.00
2013-4-14,82,66,58,59,52,48,72,63,39,30.17,30.10,11,3,17,0.01
2013-4-15,64,58,52,50,47,43,75,68,49,30.16,30.07,12,3,21,0.05
2013-4-16,65,55,50,49,44,35,73,67,50,30.14,30.08,9,3,18,0.07
2013-4-17,68,58,53,44,40,35,71,53,33,30.16,30.09,17,4,34,0.00
2013-4-18,65,58,52,44,39,35,70,50,33,30.16,30.07,14,4,27,0.00
2013-4-19,63,55,49,49,43,38,77,63,52,30.08,30.00,11,2,17,0.01
2013-4-20,67,57,50,50,44,40,75,63,48,30.10,30.00,11,2,20,0.00
2013-4-21,76,62,49,50,46,41,75,57,37,30.10,30.02,11,2,19,0.00
2013-4-22,77,64,53,52,48,44,72,56,39,30.15,30.05,8,2,17,0.00
2013-4-23,76,64,54,55,50,44,74,61,46,30.29,30.15,7,1,17,0.00
2013-4-24,84,69,57,54,48,42,73,50,26,30.38,30.28,10,2,17,0.00
2013-4-25,85,73,60,58,52,47,65,49,37,30.36,30.24,8,1,14,0.00
2013-4-26,88,74,58,55,49,45,66,44,27,30.25,30.08,9,1,16,0.00
2013-4-27,82,65,64,52,49,48,58,56,36,30.09,30.03,0,0,4,0.00
2013-4-28,84,72,59,59,50,44,72,48,31,30.12,30.01,6,1,12,0.00
2013-4-29,89,75,60,57,50,43,60,43,28,30.19,30.11,8,1,14,0.00
2013-4-30,89,77,65,59,52,42,56,42,33,30.18,30.12,11,2,21,0.00
2013-5-1,88,79,69,60,54,46,53,43,30,30.14,30.03,14,3,28,0.00
2013-5-2,87,79,72,57,52,45,53,40,31,30.04,29.98,13,4,24,0.00
2013-5-3,92,77,68,64,57,50,67,51,36,30.01,29.92,9,2,16,0.00
2013-5-4,90,78,66,64,59,56,71,54,39,30.04,29.92,6,1,14,0.00
2013-5-5,92,79,67,65,60,55,69,52,36,30.13,30.01,8,1,14,0.00
2013-5-6,88,78,71,63,59,53,65,53,37,30.15,30.07,12,2,22,0.00
2013-5-7,84,76,68,61,57,53,72,54,41,30.08,29.94,9,3,17,0.00
2013-5-8,78,69,63,63,57,51,74,67,57,29.99,29.89,7,2,15,0.00
2013-5-9,76,66,61,62,55,49,73,67,56,29.97,29.89,13,3,21,0.00
2013-5-10,74,65,60,61,53,44,74,65,56,29.98,29.89,8,2,17,0.00
2013-5-11,83,70,60,63,56,47,72,62,50,29.96,29.84,9,2,13,0.00
2013-5-12,82,72,65,63,59,54,73,63,48,29.85,29.73,9,2,17,0.00
2013-5-13,76,65,58,59,53,42,73,65,53,29.77,29.73,7,1,14,0.17
2013-5-14,72,63,57,58,50,38,73,62,47,29.93,29.75,11,3,19,0.14
2013-5-15,84,70,57,62,55,43,73,59,44,29.97,29.90,8,1,14,0.00
2013-5-16,83,69,60,65,56,48,73,63,43,30.00,29.92,9,1,16,0.00
2013-5-17,87,71,63,66,59,53,74,66,47,30.02,29.91,6,1,11,0.01
2013-5-18,93,78,63,70,61,48,70,58,37,30.08,29.98,8,1,14,0.00
2013-5-19,95,81,70,69,64,60,72,57,38,30.06,29.98,6,1,12,0.00
2013-5-20,94,82,70,70,64,60,71,57,41,30.01,29.96,6,1,11,0.00
2013-5-21,94,81,70,66,62,58,71,53,35,30.01,29.94,6,1,12,0.00
2013-5-22,90,78,68,66,60,53,71,54,31,29.98,29.82,8,1,12,0.00
2013-5-23,84,78,68,63,58,48,67,51,38,29.82,29.66,16,6,28,0.01
2013-5-24,79,72,64,60,55,52,68,56,46,29.99,29.78,13,5,23,0.00
2013-5-25,81,73,64,59,55,52,66,55,40,30.03,29.96,14,4,25,0.00
2013-5-26,86,75,63,59,56,51,72,53,36,30.03,29.93,11,3,21,0.00
2013-5-27,84,72,62,58,49,43,62,45,28,30.04,29.98,10,2,22,0.00
2013-5-28,84,72,60,61,56,50,75,60,45,30.03,29.85,6,1,12,0.00
2013-5-29,90,77,68,67,60,48,72,55,45,29.85,29.67,8,2,18,0.00
2013-5-30,90,78,68,64,59,53,74,54,31,29.82,29.73,11,3,17,0.00
2013-5-31,82,74,67,60,54,46,67,51,37,29.87,29.74,13,5,28,0.00
2013-6-1,77,68,61,59,52,45,76,56,39,29.94,29.86,11,3,17,0.01
2013-6-2,78,69,61,59,54,45,72,58,44,29.91,29.74,12,3,23,0.05
2013-6-3,83,72,62,59,56,53,73,57,40,29.96,29.91,9,2,15,0.00
2013-6-4,83,74,65,62,57,52,74,56,37,29.98,29.90,12,3,18,0.00
2013-6-5,84,75,65,60,56,50,71,54,35,30.03,29.96,10,2,14,0.00
2013-6-6,86,74,64,65,60,50,74,61,46,30.10,30.01,7,1,15,0.00
2013-6-7,87,74,68,66,60,57,75,63,42,30.08,29.93,6,1,12,0.00
2013-6-8,86,75,67,66,61,57,72,63,45,29.95,29.89,8,1,14,0.00
2013-6-9,88,77,65,66,62,54,73,61,47,30.03,29.94,6,1,13,0.00
2013-6-10,92,80,67,66,63,57,73,57,42,30.03,29.91,7,1,12,0.00
2013-6-11,92,80,69,66,62,56,74,55,38,29.92,29.71,11,2,20,0.01
2013-6-12,87,72,57,66,57,36,84,59,42,29.85,29.74,12,1,18,0.89
2013-6-13,77,68,63,64,56,46,72,64,52,29.93,29.82,10,1,20,0.06
2013-6-14,80,71,64,66,58,50,72,65,57,30.00,29.91,9,3,18,0.04
2013-6-15,88,77,65,69,62,51,72,61,46,30.02,29.97,6,1,13,0.00
2013-6-16,95,81,67,69,64,56,72,58,35,30.05,30.00,9,1,15,0.00
2013-6-17,94,82,70,70,64,58,70,55,40,30.07,30.02,8,1,16,0.00
2013-6-18,91,84,77,68,64,60,61,52,43,30.07,30.00,13,4,27,0.00
2013-6-19,91,84,78,66,63,58,59,49,39,30.03,29.94,14,4,30,0.00
2013-6-20,92,85,79,66,62,57,61,46,40,30.04,29.92,17,6,27,0.00
2013-6-21,89,81,75,66,62,57,61,52,41,30.04,29.98,14,4,23,0.00
2013-6-22,93,84,73,63,58,50,60,43,25,30.01,29.93,12,3,21,0.00
2013-6-23,100,87,76,70,62,52,62,44,34,29.95,29.85,9,2,17,0.00
2013-6-24,99,87,74,70,65,59,66,49,30,29.89,29.83,6,1,14,0.00
2013-6-25,98,87,76,69,64,61,62,48,36,29.87,29.82,9,2,14,0.00
2013-6-26,96,84,74,75,67,60,68,58,39,29.95,29.85,8,2,17,0.00
2013-6-27,92,82,74,71,67,62,73,62,47,29.99,29.93,9,2,17,0.00
2013-6-28,92,80,72,71,66,61,72,64,47,30.00,29.95,7,2,15,0.00
2013-6-29,92,82,71,69,64,54,70,56,42,29.99,29.83,11,2,19,0.00
2013-6-30,86,77,70,64,59,54,70,54,39,29.94,29.82,11,3,19,0.00
2013-7-1,90,78,68,64,59,56,72,55,35,30.08,29.94,9,2,18,0.00
2013-7-2,91,79,68,65,62,57,73,57,39,30.09,30.03,8,2,17,0.00
2013-7-3,89,80,70,65,60,55,67,52,42,30.05,29.96,9,2,15,0.00
2013-7-4,88,80,69,65,59,54,61,50,41,30.00,29.94,10,3,18,0.00
2013-7-5,87,79,70,68,62,55,62,55,47,29.99,29.94,10,2,19,0.00
2013-7-6,86,79,73,67,64,61,72,61,49,29.98,29.92,10,3,18,0.00
2013-7-7,87,83,75,70,66,62,71,57,51,30.02,29.92,14,6,27,0.00
2013-7-8,92,83,76,67,63,58,61,51,41,30.07,30.01,14,4,26,0.00
2013-7-9,93,84,78,68,64,58,62,52,43,30.05,29.91,15,5,29,0.00
2013-7-10,92,82,75,69,65,58,70,57,43,29.94,29.82,14,4,26,0.00
2013-7-11,94,83,73,68,64,58,67,54,42,29.92,29.83,10,2,21,0.00
2013-7-12,95,85,73,71,66,60,71,54,39,29.99,29.90,7,1,16,0.00
2013-7-13,92,84,76,71,66,62,64,56,47,30.00,29.94,14,2,27,0.00
2013-7-14,93,83,75,70,64,60,63,53,41,30.00,29.93,10,2,21,0.00
2013-7-15,92,82,75,66,62,59,60,52,43,29.99,29.92,11,2,17,0.00
2013-7-16,90,82,74,67,62,58,63,52,42,30.01,29.95,10,2,20,0.00
2013-7-17,82,76,71,67,63,58,73,65,52,30.05,30.00,14,4,25,0.00
2013-7-18,86,78,72,63,61,58,70,56,41,30.09,30.02,14,4,25,0.00
2013-7-19,87,79,72,63,59,56,62,50,40,30.09,29.99,17,4,25,0.00
2013-7-20,90,81,71,65,60,54,66,50,38,29.99,29.90,11,3,21,0.00
2013-7-21,94,84,74,66,62,56,59,48,39,29.96,29.91,11,3,21,0.00
2013-7-22,86,78,73,67,64,58,73,62,46,29.98,29.91,13,4,34,0.00
2013-7-23,88,79,70,66,60,53,71,53,36,29.97,29.92,14,3,23,0.00
2013-7-24,95,84,72,62,57,52,52,41,29,29.99,29.94,11,2,19,0.00
2013-7-25,98,82,72,66,61,55,61,50,28,30.01,29.94,8,0,14,0.00
2013-7-26,99,87,76,66,62,56,64,44,32,29.97,29.91,8,1,17,0.00
2013-7-27,93,86,78,67,62,58,51,44,37,30.01,29.92,11,3,19,0.00
2013-7-28,93,85,78,67,62,58,60,47,40,30.08,29.99,10,3,18,0.00
2013-7-29,95,86,78,64,61,58,57,44,31,30.09,30.00,13,3,24,0.00
2013-7-30,103,91,79,70,66,59,58,44,34,30.00,29.84,11,1,20,0.00
2013-7-31,98,88,80,74,68,62,63,51,42,29.89,29.81,11,3,21,0.00
2013-8-1,89,83,78,71,66,62,73,57,45,30.01,29.88,12,4,24,0.00
2013-8-2,89,82,76,68,64,60,69,54,41,30.04,29.99,12,4,23,0.00
2013-8-3,91,84,77,68,63,58,63,51,40,30.04,29.99,12,3,22,0.00
2013-8-4,97,87,79,68,63,60,57,45,32,30.03,29.97,11,3,26,0.00
2013-8-5,89,82,76,66,61,56,60,49,36,30.04,29.99,12,4,29,0.00
2013-8-6,88,81,75,64,60,56,59,49,37,30.01,29.94,14,4,30,0.00
2013-8-7,90,83,76,63,60,58,55,47,37,30.01,29.94,14,4,30,0.00
2013-8-8,80,79,78,61,59,56,55,51,46,30.00,29.94,14,7,30,0.00
2013-8-15,95,86,78,67,62,60,58,47,33,29.96,29.88,4,0,15,0.00
2013-8-16,88,82,75,72,68,63,74,63,55,29.97,29.90,0,0,2,0.00
2013-8-17,88,81,74,70,68,65,73,64,55,29.98,29.91,0,0,0,0.00
2013-8-18,90,83,75,66,62,58,64,50,40,30.05,29.98,0,0,0,0.00
2013-8-19,93,84,75,68,62,56,59,49,40,30.03,29.95,0,0,0,0.00
2013-8-20,93,84,77,67,61,53,57,47,35,29.98,29.91,0,0,0,0.00
2013-8-21,87,80,76,68,64,57,67,60,49,29.98,29.92,0,0,0,0.00
2013-8-22,87,79,72,70,65,62,72,63,52,29.96,29.90,0,0,0,0.00
2013-8-23,91,81,74,68,62,54,70,53,39,30.02,29.92,0,0,0,0.00
2013-8-24,95,83,72,64,59,54,58,46,34,30.02,29.95,0,0,0,0.00
2013-8-25,97,84,72,69,62,58,66,50,32,29.97,29.91,0,0,0,0.00
2013-8-26,98,85,72,69,64,60,69,51,35,29.98,29.91,0,0,0,0.00
2013-8-27,100,87,75,71,66,63,69,52,32,29.97,29.91,0,0,0,0.00
2013-8-28,102,88,77,74,67,64,67,51,31,29.96,29.89,0,0,0,0.00
2013-8-29,98,86,78,71,68,65,66,54,38,29.99,29.92,0,0,0,0.00
2013-8-30,93,83,75,73,67,62,75,59,44,30.02,29.92,3,0,9,0.00
2013-8-31,87,79,72,69,63,57,72,59,44,30.07,29.98,4,0,12,0.00
2013-9-1,88,79,71,64,60,51,75,53,41,30.15,30.06,0,0,0,0.00
2013-9-2,90,78,69,66,58,47,73,50,35,30.16,30.07,0,0,0,0.00
2013-9-3,93,80,70,70,65,61,75,62,44,30.16,30.05,1,0,6,0.00
2013-9-4,87,78,69,68,63,58,72,61,50,30.19,30.07,0,0,1,0.00
2013-9-5,88,76,66,62,57,52,70,53,37,30.19,30.06,2,0,10,0.00
2013-9-6,90,78,67,67,62,57,74,60,45,30.06,29.97,4,0,10,0.00
2013-9-7,88,76,70,70,64,61,74,66,49,30.09,30.00,0,0,0,0.00
2013-9-8,89,78,69,67,61,53,75,57,44,30.19,30.08,2,0,10,0.00
2013-9-9,86,77,69,62,58,52,73,52,41,30.23,30.16,4,0,11,0.00
2013-9-10,93,80,68,68,62,53,74,56,34,30.17,30.08,2,0,8,0.00
2013-9-11,97,82,70,72,66,57,71,58,44,30.10,30.02,2,0,8,0.00
2013-9-12,98,84,73,72,68,62,71,59,43,30.05,29.99,2,0,8,0.00
2013-9-13,94,82,74,73,68,64,74,64,44,30.03,29.97,0,0,1,0.00
2013-9-14,88,78,70,66,61,54,70,58,35,30.09,30.00,4,0,11,0.00
2013-9-15,89,76,67,62,58,47,75,57,26,30.08,29.97,2,0,10,0.00
2013-9-16,82,75,68,69,63,59,75,67,53,29.98,29.72,0,0,1,0.00
2013-9-17,86,76,67,66,63,58,75,64,48,29.80,29.73,0,0,4,0.00
2013-9-18,88,78,69,68,62,56,75,59,40,29.76,29.70,0,0,1,0.00
2013-9-19,89,77,68,66,63,59,74,62,44,29.83,29.75,0,0,0,0.00
2013-9-20,89,73,68,67,63,55,75,70,48,30.03,29.83,2,0,7,0.02
2013-9-21,82,72,66,67,60,54,74,67,56,30.11,30.02,3,0,11,0.00
2013-9-22,80,70,65,61,58,54,74,66,52,30.16,30.11,2,0,5,0.00
2013-9-23,79,69,62,60,55,53,75,63,44,30.13,30.01,0,0,0,0.00
2013-9-24,85,72,61,63,58,52,76,63,42,30.03,29.97,0,0,0,0.00
2013-9-25,88,74,62,68,61,53,75,65,43,30.09,30.03,0,0,0,0.00
2013-9-26,86,75,65,68,60,50,80,61,46,30.09,29.98,0,0,0,0.00
2013-9-27,89,76,67,66,62,57,74,63,40,30.00,29.93,3,0,9,0.00
2013-9-28,90,76,64,69,62,54,72,63,41,30.02,29.97,1,0,8,0.00
2013-9-29,88,77,67,70,64,56,74,65,49,30.01,29.95,0,0,4,0.00
2013-9-30,91,76,68,73,64,56,76,67,53,29.97,29.75,2,0,8,0.00
2013-10-1,80,72,65,68,62,47,96,70,44,29.75,29.61,1,0,2,0.35
2013-10-2,77,68,61,63,58,53,74,70,60,30.01,29.70,0,0,1,0.00
2013-10-3,66,60,56,54,50,47,79,72,65,30.32,30.01,0,0,1,0.09
2013-10-4,66,57,53,52,47,45,75,70,59,30.41,30.30,0,0,1,0.00
2013-10-5,67,56,51,50,46,43,76,68,54,30.41,30.33,0,0,1,0.00
2013-10-6,71,58,50,53,47,42,77,67,51,30.39,30.30,0,0,3,0.00
2013-10-7,73,61,51,53,49,43,78,66,49,30.40,30.34,1,0,4,0.00
2013-10-8,78,64,56,60,53,48,75,67,47,30.39,30.32,2,0,7,0.00
2013-10-9,81,66,55,61,53,46,75,64,35,30.34,30.22,2,0,6,0.00
2013-10-10,70,64,59,59,53,46,80,67,60,30.22,30.13,0,0,1,0.00
2013-10-11,86,72,60,69,58,45,73,61,50,30.27,30.17,2,0,4,0.00
2013-10-12,89,74,64,71,62,51,81,66,51,30.28,30.22,0,0,1,0.00
2013-10-13,86,73,64,69,61,50,96,67,49,30.25,30.18,4,0,7,0.00
2013-10-14,86,72,62,64,58,51,72,62,42,30.22,30.16,4,0,8,0.00
2013-10-15,82,71,61,68,59,49,72,67,60,30.22,30.05,0,0,0,0.00
2013-10-16,71,68,63,60,55,44,80,63,48,30.05,29.66,0,0,1,0.20
2013-10-17,72,65,58,62,52,46,84,64,48,29.82,29.59,0,0,1,0.09
2013-10-18,80,67,59,59,53,49,73,62,44,30.11,29.81,0,0,0,0.00
2013-10-19,77,67,60,55,52,48,74,58,41,30.41,30.11,0,0,0,0.00
2013-10-20,76,64,55,57,51,46,74,63,45,30.47,30.40,0,0,0,0.00
2013-10-21,80,65,53,60,52,44,74,63,41,30.40,30.27,0,0,1,0.00
2013-10-22,82,66,56,63,53,43,75,64,45,30.27,30.19,0,0,6,0.00
2013-10-23,84,70,58,62,55,46,84,58,48,30.29,30.21,3,0,15,0.00
2013-10-24,77,68,63,58,54,48,73,62,51,30.29,30.23,11,1,22,0.02
2013-10-25,78,66,58,57,52,46,73,62,46,30.25,30.19,10,2,19,0.04
2013-10-26,79,65,53,55,46,33,72,53,33,30.26,30.21,10,2,18,0.01
2013-10-27,82,66,55,62,48,33,71,54,33,30.24,30.15,6,1,13,0.00
2013-10-28,81,66,54,63,52,43,74,61,48,30.19,30.13,6,1,10,0.00
2013-10-29,84,67,54,64,53,41,73,62,41,30.15,30.06,4,1,9,0.00
2013-10-30,84,67,57,65,54,40,72,63,39,30.15,30.08,6,1,13,0.00
2013-10-31,79,69,60,61,54,49,74,61,50,30.24,30.13,9,3,18,0.00
2013-11-1,72,64,60,58,53,50,73,68,59,30.26,30.20,11,4,23,0.00
2013-11-2,77,64,58,61,53,46,73,67,53,30.23,30.15,7,1,13,0.00
2013-11-3,79,65,56,66,53,40,83,64,53,30.18,30.10,6,1,9,0.00
2013-11-4,78,66,58,65,54,43,79,64,52,30.13,30.01,8,1,11,0.00
2013-11-5,76,67,60,64,56,44,75,66,55,30.01,29.81,13,3,29,0.00
2013-11-6,67,61,58,56,50,29,90,69,36,29.81,29.67,18,2,38,0.94
2013-11-7,72,63,55,60,47,37,93,57,42,30.19,29.76,11,3,23,0.05
2013-11-8,79,64,53,59,51,43,73,64,45,30.24,30.17,5,1,10,0.00
2013-11-9,81,63,54,62,51,42,73,64,48,30.19,30.09,4,1,9,0.00
2013-11-10,75,63,54,64,51,38,79,65,52,30.09,29.94,7,1,11,0.00
2013-11-11,75,64,58,70,52,27,99,66,17,30.05,29.90,8,2,18,0.37
2013-11-12,63,61,60,5,4,4,10,10,10,30.15,30.14,2,0,5,0.24
2013-11-13,73,63,57,61,34,1,69,41,10,30.15,30.03,8,1,16,0.05
2013-11-14,64,59,55,49,22,0,59,29,10,30.05,29.94,11,2,20,0.56
2013-11-15,65,58,55,50,30,1,62,36,10,30.19,29.98,11,4,22,0.01
2013-11-16,61,57,55,47,37,24,66,49,29,30.26,30.17,13,4,24,0.00
2013-11-17,62,56,52,49,42,34,67,60,47,30.27,30.19,11,4,24,0.00
2013-11-18,64,56,51,51,43,38,66,64,58,30.23,30.18,8,2,18,0.00
2013-11-19,70,58,50,56,41,21,67,53,27,30.22,30.11,4,1,9,0.00
2013-11-20,75,62,58,65,20,2,72,24,10,30.11,29.96,8,1,14,0.52
2013-11-21,76,62,56,62,36,0,66,42,10,29.98,29.85,10,1,18,0.32
2013-11-22,70,59,53,59,29,-2,74,41,10,29.90,29.78,7,1,12,0.04
2013-11-23,73,60,52,62,42,17,69,53,24,29.90,29.83,10,1,21,0.00
2013-11-24,63,58,54,58,36,2,99,46,10,29.88,29.76,14,1,28,0.77
2013-11-25,69,58,51,63,44,29,85,60,38,29.82,29.78,5,0,12,0.01
2013-11-26,71,57,51,60,40,29,72,55,42,29.87,29.78,8,0,13,0.01
2013-11-27,64,55,48,51,39,26,72,56,40,30.29,29.85,8,1,17,0.01
2013-11-28,61,52,44,46,40,32,72,65,53,30.39,30.28,10,2,14,0.00
2013-11-29,65,51,42,49,40,29,72,64,53,30.30,30.18,6,1,9,0.00
2013-11-30,55,52,48,44,38,20,69,59,29,30.22,30.13,5,1,13,0.09
2013-12-1,63,58,51,48,37,23,63,46,25,30.15,30.04,11,3,23,0.15
2013-12-2,70,59,56,59,42,32,99,55,35,30.17,30.01,11,3,19,0.74
2013-12-3,57,48,42,41,34,-2,74,60,10,30.26,30.13,21,8,42,2.65
2013-12-4,46,43,41,38,29,15,74,59,35,30.23,30.14,12,4,24,0.33
2013-12-5,65,50,40,46,37,30,75,61,40,30.17,30.11,9,1,18,0.00
2013-12-6,66,51,39,48,39,30,75,64,44,30.15,29.96,8,1,12,0.00
2013-12-7,60,50,45,49,36,21,73,60,38,30.31,29.94,14,4,28,0.00
2013-12-8,55,47,41,34,31,28,71,55,43,30.49,30.30,12,3,22,0.00
2013-12-9,62,49,36,44,35,28,74,61,32,30.49,30.30,8,1,12,0.00
2013-12-10,64,50,43,46,38,31,75,65,46,30.44,30.17,17,4,32,0.09
2013-12-11,47,40,38,33,28,25,70,61,46,30.60,30.44,18,5,32,0.02
2013-12-12,50,43,35,38,32,25,79,68,40,30.52,30.33,8,1,17,0.00
2013-12-13,49,45,41,39,32,20,74,61,42,30.33,30.23,7,1,16,0.00
2013-12-14,65,50,38,53,36,20,72,60,47,30.45,30.28,3,0,6,0.00
2013-12-15,68,53,46,56,37,20,72,56,32,30.45,30.39,4,0,8,0.00
2013-12-16,59,50,47,50,39,31,75,64,49,30.48,30.38,14,2,27,0.00
2013-12-17,53,47,44,44,38,34,74,71,63,30.51,30.42,12,4,27,0.00
2013-12-18,48,45,43,39,33,30,71,64,55,30.42,30.30,8,3,14,0.00
2013-12-19,54,46,41,44,33,21,72,61,40,30.38,30.30,10,2,19,0.00
2013-12-20,65,48,38,48,34,21,72,59,50,30.54,30.37,4,0,9,0.00
2013-12-21,68,50,41,54,35,16,71,57,36,30.60,30.53,3,0,8,0.00
2013-12-22,64,51,41,46,38,28,76,60,44,30.59,30.47,8,1,14,0.00
2013-12-23,65,50,40,50,36,27,74,60,48,30.47,30.38,5,1,9,0.00
2013-12-24,53,49,46,42,32,24,67,52,38,30.41,30.28,8,1,14,0.00
2013-12-25,67,54,48,56,32,13,74,45,21,30.31,30.16,5,1,13,0.12
2013-12-26,67,56,50,58,36,8,77,50,13,30.17,29.97,6,1,11,0.05
2013-12-27,57,54,51,49,41,34,88,60,44,29.98,29.89,11,2,27,0.89
2013-12-28,61,53,50,56,47,40,99,80,64,30.03,29.90,10,3,20,0.09
2013-12-29,65,55,50,54,46,41,80,72,61,30.17,30.01,12,3,20,0.00
2013-12-30,68,55,46,50,45,38,78,70,49,30.22,30.16,10,2,16,0.00
2013-12-31,53,49,45,44,41,38,79,75,72,30.27,30.20,12,3,24,0.00
2014-1-1,50,47,45,42,38,35,76,71,61,30.25,30.16,8,2,15,0.26
2014-1-2,58,50,47,51,42,36,77,72,64,30.21,30.14,10,2,16,0.02